Time;durP1;ratioP1;P1;durP2;ratioP2;P2;SDS_P1;SDS_P2;PMS_P1;PMS_P2;Temp;Humidity;BMP_temperature;BMP_pressure;BME280_temperature;BME280_humidity;BME280_pressure;Samples;Min_cycle;Max_cycle;Signal;HPM_P1;HPM_P2
2023/06/15 00:02:10;;;;;;;4.28;3.80;;;12.80;99.90;;;;;;4996555;28;20433;-59
2023/06/15 00:04:36;;;;;;;4.22;3.83;;;12.80;99.90;;;;;;5000275;28;20112;-59
2023/06/15 00:07:02;;;;;;;3.72;3.42;;;12.80;99.90;;;;;;4993053;28;20138;-59
2023/06/15 00:09:27;;;;;;;4.18;3.80;;;12.80;99.90;;;;;;4999488;28;20049;-57
2023/06/15 00:11:53;;;;;;;6.25;4.85;;;12.90;99.90;;;;;;4994316;28;20037;-58
2023/06/15 00:14:18;;;;;;;4.85;4.35;;;12.90;99.90;;;;;;4997796;28;20029;-59
2023/06/15 00:16:45;;;;;;;5.40;4.65;;;13.00;99.90;;;;;;5000925;28;20501;-59
2023/06/15 00:19:11;;;;;;;5.93;4.80;;;13.00;99.90;;;;;;4999485;28;20080;-59
2023/06/15 00:21:40;;;;;;;4.80;4.30;;;12.90;99.90;;;;;;4995632;28;20026;-59
2023/06/15 00:24:08;;;;;;;5.30;4.80;;;12.80;99.90;;;;;;4996724;28;20450;-58
2023/06/15 00:26:33;;;;;;;5.13;4.63;;;12.90;99.90;;;;;;4996845;28;20033;-58
2023/06/15 00:28:59;;;;;;;5.72;4.63;;;12.80;99.90;;;;;;4993363;28;20041;-58
2023/06/15 00:31:25;;;;;;;7.28;5.03;;;12.60;99.90;;;;;;4997312;28;20026;-59
2023/06/15 00:33:51;;;;;;;4.65;4.13;;;12.40;99.90;;;;;;4996051;28;20041;-59
2023/06/15 00:36:17;;;;;;;6.38;4.40;;;12.40;99.90;;;;;;4996833;28;20030;-58
2023/06/15 00:38:43;;;;;;;4.43;4.03;;;12.30;99.90;;;;;;4993162;28;20402;-59
2023/06/15 00:41:09;;;;;;;4.95;4.47;;;12.20;99.90;;;;;;4998890;28;20042;-58
2023/06/15 00:43:35;;;;;;;4.63;4.22;;;12.20;99.90;;;;;;4996792;28;20604;-58
2023/06/15 00:46:02;;;;;;;4.13;3.83;;;12.20;99.90;;;;;;4993620;28;20025;-58
2023/06/15 00:48:31;;;;;;;4.43;4.10;;;12.20;99.90;;;;;;4998968;28;20034;-57
2023/06/15 00:50:57;;;;;;;4.63;4.18;;;12.10;99.90;;;;;;4992742;28;20038;-58
2023/06/15 00:53:24;;;;;;;4.70;4.30;;;12.10;99.90;;;;;;4997590;28;20054;-58
2023/06/15 00:55:51;;;;;;;4.15;3.85;;;12.10;99.90;;;;;;4995818;28;20029;-58
2023/06/15 00:58:18;;;;;;;4.75;4.35;;;12.10;99.90;;;;;;4996258;28;20022;-59
2023/06/15 01:00:48;;;;;;;4.40;4.03;;;12.10;99.90;;;;;;4997238;28;20048;-58
2023/06/15 01:03:15;;;;;;;4.38;4.07;;;12.00;99.90;;;;;;4995449;28;20038;-59
2023/06/15 01:05:44;;;;;;;4.70;4.30;;;11.80;99.90;;;;;;4995682;28;20069;-58
2023/06/15 01:08:11;;;;;;;4.57;4.18;;;11.70;99.90;;;;;;4996062;28;20122;-57
2023/06/15 01:10:37;;;;;;;4.53;4.13;;;11.40;99.90;;;;;;4998752;28;20033;-58
2023/06/15 01:13:05;;;;;;;4.85;4.45;;;11.30;99.90;;;;;;4995499;28;20030;-58
2023/06/15 01:15:31;;;;;;;4.22;3.92;;;11.20;99.90;;;;;;5000683;28;20037;-59
2023/06/15 01:18:03;;;;;;;5.28;4.65;;;11.20;99.90;;;;;;4991968;28;20092;-59
2023/06/15 01:20:38;;;;;;;4.80;4.50;;;11.20;99.90;;;;;;4997540;28;20041;-58
2023/06/15 01:23:22;;;;;;;4.55;4.20;;;11.30;99.90;;;;;;4997635;28;20524;-57
2023/06/15 01:25:53;;;;;;;5.13;4.72;;;11.30;99.90;;;;;;4996122;28;20022;-57
2023/06/15 01:28:20;;;;;;;5.05;4.65;;;11.40;99.90;;;;;;4993803;28;20022;-59
2023/06/15 01:30:56;;;;;;;4.88;4.47;;;11.40;99.90;;;;;;4996082;28;20041;-59
2023/06/15 01:33:22;;;;;;;5.25;4.88;;;11.30;99.90;;;;;;4997375;28;20449;-59
2023/06/15 01:35:49;;;;;;;5.18;4.78;;;11.20;99.90;;;;;;4993723;28;20048;-59
2023/06/15 01:38:17;;;;;;;4.78;4.38;;;11.20;99.90;;;;;;4997305;28;20030;-59
2023/06/15 01:40:47;;;;;;;4.55;4.15;;;11.20;99.90;;;;;;4994002;28;20027;-58
2023/06/15 01:43:16;;;;;;;4.47;4.00;;;11.10;99.90;;;;;;4994635;28;20045;-58
2023/06/15 01:45:44;;;;;;;8.20;4.55;;;11.00;99.90;;;;;;4995226;28;20045;-58
2023/06/15 01:48:10;;;;;;;4.80;4.40;;;10.90;99.90;;;;;;4990817;28;20034;-59
2023/06/15 01:50:37;;;;;;;4.95;4.55;;;10.80;99.90;;;;;;4997940;28;20092;-58
2023/06/15 01:53:04;;;;;;;5.15;4.72;;;10.70;99.90;;;;;;4996518;28;20029;-59
2023/06/15 01:55:30;;;;;;;5.30;4.80;;;10.60;99.90;;;;;;4994238;28;20029;-59
2023/06/15 01:57:56;;;;;;;5.45;4.45;;;10.60;99.90;;;;;;4995478;28;20511;-58
2023/06/15 02:00:25;;;;;;;4.72;4.32;;;10.50;99.90;;;;;;4998951;28;20041;-59
2023/06/15 02:02:51;;;;;;;5.25;4.75;;;10.40;99.90;;;;;;4996147;28;20041;-58
2023/06/15 02:05:17;;;;;;;4.88;4.47;;;10.30;99.90;;;;;;5000448;28;20038;-59
2023/06/15 02:07:43;;;;;;;5.60;5.10;;;10.20;99.90;;;;;;4998731;28;20022;-58
2023/06/15 02:10:10;;;;;;;5.43;5.03;;;10.10;99.90;;;;;;4997643;28;20092;-58
2023/06/15 02:12:36;;;;;;;5.63;5.13;;;10.00;99.90;;;;;;5001625;28;20107;-58
2023/06/15 02:15:02;;;;;;;5.90;5.40;;;10.00;99.90;;;;;;5001340;28;20658;-59
2023/06/15 02:17:38;;;;;;;5.50;5.10;;;9.90;99.90;;;;;;5001866;28;20038;-59
2023/06/15 02:20:08;;;;;;;13.80;5.40;;;9.80;99.90;;;;;;4997588;28;20057;-59
2023/06/15 02:22:33;;;;;;;6.18;5.57;;;9.70;99.90;;;;;;4997500;28;20026;-59
2023/06/15 02:24:59;;;;;;;5.97;5.47;;;9.60;99.90;;;;;;4997853;28;20037;-59
2023/06/15 02:27:25;;;;;;;5.68;5.28;;;9.60;99.90;;;;;;4999379;28;20071;-59
2023/06/15 02:29:50;;;;;;;6.90;6.30;;;9.60;99.90;;;;;;5002163;28;20034;-57
2023/06/15 02:32:29;;;;;;;6.68;6.18;;;9.60;99.90;;;;;;4998005;28;20510;-59
2023/06/15 02:34:56;;;;;;;8.25;5.88;;;9.60;99.90;;;;;;5000269;28;20117;-58
2023/06/15 02:37:21;;;;;;;6.00;5.50;;;9.70;99.90;;;;;;4997834;28;20466;-59
2023/06/15 02:39:47;;;;;;;6.47;5.82;;;9.70;99.90;;;;;;5000011;28;20389;-59
2023/06/15 02:42:13;;;;;;;6.53;5.93;;;9.70;99.90;;;;;;5000008;28;20034;-59
2023/06/15 02:44:38;;;;;;;6.82;6.03;;;9.70;99.90;;;;;;5001703;28;20129;-59
2023/06/15 02:47:05;;;;;;;6.68;6.00;;;9.60;99.90;;;;;;4997452;28;20418;-59
2023/06/15 02:49:30;;;;;;;6.63;6.03;;;9.60;99.90;;;;;;4999689;28;20096;-59
2023/06/15 02:51:56;;;;;;;7.45;6.78;;;9.70;99.90;;;;;;4998432;28;20038;-57
2023/06/15 02:54:23;;;;;;;6.88;6.25;;;9.70;99.90;;;;;;4999232;28;20378;-57
2023/06/15 02:56:51;;;;;;;6.93;6.32;;;9.70;99.90;;;;;;4995544;28;20077;-59
2023/06/15 02:59:17;;;;;;;6.90;6.40;;;9.70;99.90;;;;;;4997746;28;20490;-59
2023/06/15 03:01:43;;;;;;;7.13;6.63;;;9.70;99.90;;;;;;4999748;28;20030;-59
2023/06/15 03:04:09;;;;;;;7.68;6.97;;;9.70;99.90;;;;;;4996248;28;20060;-59
2023/06/15 03:06:36;;;;;;;7.22;6.63;;;9.70;99.90;;;;;;4998014;28;20046;-59
2023/06/15 03:09:03;;;;;;;6.95;6.35;;;9.80;99.90;;;;;;4999939;28;20048;-58
2023/06/15 03:11:28;;;;;;;7.05;6.45;;;9.80;99.90;;;;;;4999354;28;20022;-59
2023/06/15 03:13:54;;;;;;;6.93;6.32;;;9.80;99.90;;;;;;4994588;28;20034;-59
2023/06/15 03:16:20;;;;;;;9.00;6.15;;;9.80;99.90;;;;;;4995456;28;20125;-58
2023/06/15 03:18:47;;;;;;;6.18;5.63;;;9.70;99.90;;;;;;4998368;28;20037;-59
2023/06/15 03:21:14;;;;;;;6.43;5.93;;;9.70;99.90;;;;;;4995563;28;20038;-59
2023/06/15 03:23:42;;;;;;;5.53;5.03;;;9.60;99.90;;;;;;4997134;28;20057;-59
2023/06/15 03:26:07;;;;;;;5.93;5.35;;;9.50;99.90;;;;;;4997840;28;20042;-58
2023/06/15 03:28:38;;;;;;;6.35;5.85;;;9.40;99.90;;;;;;4997122;28;20024;-58
2023/06/15 03:31:04;;;;;;;5.32;4.93;;;9.40;99.90;;;;;;4999277;28;20117;-58
2023/06/15 03:33:30;;;;;;;6.18;5.68;;;9.30;99.90;;;;;;4996011;28;20076;-60
2023/06/15 03:35:57;;;;;;;5.38;4.88;;;9.30;99.90;;;;;;4996810;28;20038;-59
2023/06/15 03:38:23;;;;;;;6.05;5.63;;;9.30;99.90;;;;;;5002766;28;20046;-58
2023/06/15 03:40:49;;;;;;;7.18;6.45;;;9.30;99.90;;;;;;4996094;28;20060;-58
2023/06/15 03:43:15;;;;;;;7.03;6.43;;;9.30;99.90;;;;;;4996975;28;20037;-59
2023/06/15 03:45:41;;;;;;;6.70;6.10;;;9.30;99.90;;;;;;4996973;28;20030;-60
2023/06/15 03:48:06;;;;;;;7.53;6.97;;;9.30;99.90;;;;;;4997019;28;20042;-58
2023/06/15 03:50:33;;;;;;;7.00;6.43;;;9.30;99.90;;;;;;5002906;28;20030;-58
2023/06/15 03:52:59;;;;;;;7.22;6.70;;;9.40;99.90;;;;;;4998423;28;20015;-59
2023/06/15 03:55:25;;;;;;;8.18;7.57;;;9.40;99.90;;;;;;4997642;28;20124;-59
2023/06/15 03:57:51;;;;;;;7.40;6.80;;;9.50;99.90;;;;;;4998478;28;20049;-59
2023/06/15 04:00:18;;;;;;;7.20;6.60;;;9.50;99.90;;;;;;4996626;28;20658;-59
2023/06/15 04:02:44;;;;;;;7.78;7.05;;;9.60;99.90;;;;;;4997551;28;20081;-59
2023/06/15 04:05:09;;;;;;;12.20;6.50;;;9.60;99.90;;;;;;4999093;28;20046;-57
2023/06/15 04:07:35;;;;;;;7.65;7.03;;;9.60;99.90;;;;;;5000068;28;20022;-58
2023/06/15 04:10:02;;;;;;;6.43;5.82;;;9.60;99.90;;;;;;4999098;28;20097;-59
2023/06/15 04:12:27;;;;;;;7.68;6.50;;;9.60;99.90;;;;;;4993664;28;20564;-60
2023/06/15 04:14:53;;;;;;;7.00;6.30;;;9.50;99.90;;;;;;4997402;28;20089;-59
2023/06/15 04:17:19;;;;;;;7.20;6.50;;;9.60;99.90;;;;;;4996437;28;20027;-59
2023/06/15 04:19:46;;;;;;;8.15;7.40;;;9.60;99.90;;;;;;4996643;28;20022;-58
2023/06/15 04:22:11;;;;;;;7.97;7.30;;;9.70;99.90;;;;;;4995603;28;20756;-59
2023/06/15 04:24:37;;;;;;;8.00;7.20;;;9.80;99.90;;;;;;4999126;28;20096;-57
2023/06/15 04:27:03;;;;;;;8.00;7.20;;;9.90;99.90;;;;;;4996826;28;20865;-59
2023/06/15 04:29:31;;;;;;;6.88;6.30;;;10.00;99.90;;;;;;4998963;28;20042;-59
2023/06/15 04:31:57;;;;;;;5.72;5.22;;;10.00;99.90;;;;;;4995503;28;20018;-59
2023/06/15 04:34:26;;;;;;;5.88;5.47;;;9.90;99.90;;;;;;4995221;28;20014;-59
2023/06/15 04:36:52;;;;;;;5.75;5.25;;;9.90;99.90;;;;;;4996269;28;20034;-58
2023/06/15 04:39:23;;;;;;;6.15;5.65;;;9.80;99.90;;;;;;4996971;28;20105;-59
2023/06/15 04:41:49;;;;;;;6.90;6.30;;;9.80;99.90;;;;;;4994319;28;20062;-59
2023/06/15 04:44:15;;;;;;;7.03;5.85;;;9.90;99.90;;;;;;4997453;28;20099;-58
2023/06/15 04:46:41;;;;;;;7.70;7.10;;;10.00;99.90;;;;;;4994395;28;20034;-59
2023/06/15 04:49:08;;;;;;;7.90;7.30;;;10.00;99.90;;;;;;4995041;28;20088;-59
2023/06/15 04:51:34;;;;;;;8.00;7.30;;;10.20;99.90;;;;;;4996094;28;20053;-59
2023/06/15 04:54:00;;;;;;;7.22;6.72;;;10.20;99.90;;;;;;4993374;28;20081;-59
2023/06/15 04:56:26;;;;;;;9.15;8.43;;;10.30;99.90;;;;;;4992736;28;20042;-58
2023/06/15 04:58:52;;;;;;;14.07;8.77;;;10.40;99.90;;;;;;4998263;28;20025;-59
2023/06/15 05:01:17;;;;;;;7.97;7.35;;;10.50;99.90;;;;;;4996628;28;20234;-59
2023/06/15 05:03:44;;;;;;;9.57;8.88;;;10.60;99.90;;;;;;4996863;28;20403;-59
2023/06/15 05:06:10;;;;;;;8.63;7.82;;;10.70;99.90;;;;;;4996711;28;20030;-59
2023/06/15 05:08:35;;;;;;;9.30;8.00;;;10.80;99.90;;;;;;4997135;28;20037;-57
2023/06/15 05:11:02;;;;;;;8.43;7.82;;;10.90;99.90;;;;;;4997615;28;20034;-58
2023/06/15 05:13:28;;;;;;;9.45;8.18;;;10.90;99.90;;;;;;4993693;28;20061;-58
2023/06/15 05:15:54;;;;;;;14.65;8.05;;;10.90;99.90;;;;;;4993891;28;20044;-60
2023/06/15 05:18:19;;;;;;;8.10;7.45;;;10.90;99.90;;;;;;4993756;28;20963;-59
2023/06/15 05:20:46;;;;;;;8.18;7.57;;;10.90;99.90;;;;;;4996398;28;20030;-57
2023/06/15 05:23:12;;;;;;;9.85;8.90;;;11.00;99.90;;;;;;4996716;28;20031;-58
2023/06/15 05:25:38;;;;;;;9.50;8.70;;;11.10;99.90;;;;;;4999333;28;20065;-57
2023/06/15 05:28:04;;;;;;;10.77;9.70;;;11.20;99.90;;;;;;4993818;28;20076;-59
2023/06/15 05:30:29;;;;;;;11.07;9.88;;;11.30;99.90;;;;;;4996326;28;20038;-59
2023/06/15 05:32:55;;;;;;;9.90;9.10;;;11.40;99.90;;;;;;4997792;28;20034;-59
2023/06/15 05:35:21;;;;;;;10.48;9.45;;;11.60;99.90;;;;;;4996660;28;20029;-58
2023/06/15 05:37:47;;;;;;;10.05;9.20;;;11.70;99.90;;;;;;5002072;28;20022;-59
2023/06/15 05:40:13;;;;;;;10.50;9.70;;;11.80;99.90;;;;;;5003804;28;20053;-59
2023/06/15 05:42:39;;;;;;;9.50;8.70;;;12.00;99.90;;;;;;5003824;28;20581;-60
2023/06/15 05:45:05;;;;;;;11.98;9.75;;;12.10;99.90;;;;;;5002234;28;20049;-59
2023/06/15 05:47:32;;;;;;;9.77;8.88;;;12.20;99.90;;;;;;4998900;28;20172;-59
2023/06/15 05:49:57;;;;;;;9.77;8.80;;;12.20;99.90;;;;;;5001467;28;20117;-58
2023/06/15 05:52:23;;;;;;;10.40;9.48;;;12.30;99.90;;;;;;5003663;28;20117;-59
2023/06/15 05:54:49;;;;;;;10.32;9.52;;;12.30;99.90;;;;;;5004372;28;20712;-59
2023/06/15 05:57:15;;;;;;;8.98;8.27;;;12.40;99.90;;;;;;5000792;28;20034;-59
2023/06/15 05:59:41;;;;;;;11.35;8.90;;;12.50;99.90;;;;;;5002773;28;20111;-59
2023/06/15 06:02:07;;;;;;;9.05;8.35;;;12.60;99.90;;;;;;5001389;28;20576;-58
2023/06/15 06:04:34;;;;;;;9.73;8.93;;;12.60;99.90;;;;;;5002444;28;20069;-59
2023/06/15 06:07:00;;;;;;;8.85;7.97;;;12.70;99.90;;;;;;5002892;28;20037;-58
2023/06/15 06:09:26;;;;;;;8.88;8.15;;;12.80;99.90;;;;;;5002073;28;20075;-58
2023/06/15 06:11:51;;;;;;;7.78;7.07;;;13.00;99.90;;;;;;5000843;28;20045;-59
2023/06/15 06:14:17;;;;;;;10.25;7.90;;;13.00;99.90;;;;;;5005354;28;20444;-59
2023/06/15 06:16:43;;;;;;;8.30;7.50;;;13.20;99.90;;;;;;4999909;28;20030;-58
2023/06/15 06:19:09;;;;;;;8.23;7.43;;;13.30;99.90;;;;;;5002315;28;20037;-59
2023/06/15 06:21:34;;;;;;;9.00;8.10;;;13.40;99.90;;;;;;5003617;28;20029;-59
2023/06/15 06:24:00;;;;;;;8.23;7.53;;;13.50;99.90;;;;;;5002478;28;20048;-55
2023/06/15 06:26:26;;;;;;;7.65;7.05;;;13.70;99.90;;;;;;4997716;28;20034;-58
2023/06/15 06:28:52;;;;;;;7.78;7.07;;;13.80;99.90;;;;;;5001816;28;20080;-58
2023/06/15 06:31:18;;;;;;;7.10;6.50;;;13.90;99.90;;;;;;5000801;28;20128;-58
2023/06/15 06:33:44;;;;;;;8.00;7.40;;;14.10;99.90;;;;;;5003216;28;20450;-59
2023/06/15 06:36:09;;;;;;;6.93;6.25;;;14.20;99.90;;;;;;4995702;28;20034;-59
2023/06/15 06:38:38;;;;;;;7.03;6.40;;;14.30;99.90;;;;;;4996375;28;20109;-59
2023/06/15 06:41:04;;;;;;;8.40;6.30;;;14.40;99.90;;;;;;4997559;28;20027;-59
2023/06/15 06:43:29;;;;;;;8.35;5.95;;;14.60;99.90;;;;;;5000440;28;20112;-58
2023/06/15 06:45:55;;;;;;;7.00;6.40;;;14.70;99.90;;;;;;4999224;28;20034;-59
2023/06/15 06:48:21;;;;;;;6.45;5.95;;;14.80;99.90;;;;;;4999131;28;20057;-59
2023/06/15 06:50:46;;;;;;;5.88;5.35;;;14.90;99.90;;;;;;4997861;28;20965;-59
2023/06/15 06:53:12;;;;;;;6.72;6.13;;;15.00;99.90;;;;;;5000318;28;20030;-59
2023/06/15 06:55:38;;;;;;;6.55;5.90;;;15.10;99.90;;;;;;4997621;28;20157;-59
2023/06/15 06:58:05;;;;;;;6.55;5.95;;;15.30;99.90;;;;;;4999360;28;20042;-59
2023/06/15 07:00:31;;;;;;;6.10;5.50;;;15.40;99.90;;;;;;5000633;28;20037;-59
2023/06/15 07:02:57;;;;;;;6.25;5.65;;;15.50;99.90;;;;;;4997134;28;20038;-59
2023/06/15 07:05:23;;;;;;;7.85;7.05;;;15.60;99.90;;;;;;4998489;28;20042;-58
2023/06/15 07:07:49;;;;;;;8.07;6.25;;;15.70;99.90;;;;;;4997947;28;20045;-59
2023/06/15 07:10:15;;;;;;;6.35;5.75;;;15.90;99.90;;;;;;4998472;28;20018;-60
2023/06/15 07:12:40;;;;;;;6.07;5.57;;;16.10;99.90;;;;;;4998842;28;20514;-59
2023/06/15 07:15:07;;;;;;;6.15;5.47;;;16.20;99.90;;;;;;4997706;28;20034;-57
2023/06/15 07:17:32;;;;;;;6.68;6.18;;;16.30;99.90;;;;;;4995569;28;20390;-56
2023/06/15 07:19:58;;;;;;;6.45;5.88;;;16.40;99.90;;;;;;4997270;28;20034;-56
2023/06/15 07:22:24;;;;;;;6.53;5.93;;;16.50;99.90;;;;;;4999557;28;20116;-56
2023/06/15 07:24:50;;;;;;;6.80;6.22;;;16.70;99.90;;;;;;4998439;28;20050;-57
2023/06/15 07:27:20;;;;;;;10.13;5.88;;;16.80;99.90;;;;;;4995873;28;20866;-57
2023/06/15 07:29:45;;;;;;;5.13;4.70;;;16.90;99.90;;;;;;4997379;28;20510;-56
2023/06/15 07:32:11;;;;;;;6.25;5.80;;;17.00;99.90;;;;;;5000157;28;20034;-57
2023/06/15 07:34:36;;;;;;;6.65;5.97;;;17.10;99.90;;;;;;4998503;28;20030;-57
2023/06/15 07:37:02;;;;;;;6.13;5.63;;;17.10;99.90;;;;;;4996357;28;20187;-56
2023/06/15 07:39:29;;;;;;;7.60;5.60;;;17.20;99.90;;;;;;4997691;28;20745;-57
2023/06/15 07:41:55;;;;;;;6.25;5.55;;;17.20;99.90;;;;;;4997317;28;20516;-56
2023/06/15 07:44:21;;;;;;;6.18;5.35;;;17.30;99.90;;;;;;4997265;28;20038;-56
2023/06/15 07:46:47;;;;;;;6.18;5.57;;;17.50;99.90;;;;;;4994745;28;20117;-57
2023/06/15 07:49:12;;;;;;;6.25;5.65;;;17.70;99.90;;;;;;4993068;28;20442;-56
2023/06/15 07:51:38;;;;;;;5.28;4.88;;;17.90;99.90;;;;;;5000012;28;20042;-57
2023/06/15 07:54:04;;;;;;;6.00;5.50;;;18.10;99.90;;;;;;5000101;28;20188;-58
2023/06/15 07:56:30;;;;;;;5.63;5.13;;;18.10;99.90;;;;;;4998337;28;20106;-56
2023/06/15 07:58:55;;;;;;;6.53;5.18;;;18.10;99.90;;;;;;4997239;28;20402;-55
2023/06/15 08:01:21;;;;;;;5.53;4.80;;;18.10;99.90;;;;;;4997628;28;20724;-57
2023/06/15 08:03:47;;;;;;;7.32;5.10;;;18.20;99.90;;;;;;4999380;28;20026;-57
2023/06/15 08:06:12;;;;;;;5.40;4.90;;;18.30;99.90;;;;;;5002194;28;20060;-57
2023/06/15 08:08:38;;;;;;;5.45;4.95;;;18.40;99.90;;;;;;4999410;28;20410;-57
2023/06/15 08:11:07;;;;;;;5.35;4.75;;;18.60;99.90;;;;;;4997022;28;20417;-56
2023/06/15 08:13:33;;;;;;;9.55;4.63;;;18.80;99.90;;;;;;4997727;28;20029;-56
2023/06/15 08:15:59;;;;;;;5.05;4.65;;;18.80;99.90;;;;;;4995922;28;20026;-57
2023/06/15 08:18:26;;;;;;;4.75;4.43;;;19.00;99.90;;;;;;4998668;28;20105;-56
2023/06/15 08:20:52;;;;;;;5.78;4.80;;;19.10;99.90;;;;;;4995891;28;20035;-57
2023/06/15 08:23:17;;;;;;;4.72;4.25;;;19.20;99.90;;;;;;4998779;28;20084;-58
2023/06/15 08:25:43;;;;;;;4.57;4.18;;;19.30;99.90;;;;;;4999261;28;20112;-57
2023/06/15 08:28:09;;;;;;;4.75;4.25;;;19.40;99.90;;;;;;4996238;28;20034;-57
2023/06/15 08:30:35;;;;;;;4.53;4.22;;;19.60;99.90;;;;;;4997579;28;20037;-57
2023/06/15 08:33:01;;;;;;;5.47;4.97;;;19.80;99.90;;;;;;4992754;28;20034;-57
2023/06/15 08:35:26;;;;;;;4.55;4.15;;;20.00;99.90;;;;;;4997952;28;20045;-56
2023/06/15 08:37:52;;;;;;;3.90;3.60;;;20.20;98.00;;;;;;5000652;28;20105;-57
2023/06/15 08:40:19;;;;;;;4.50;4.10;;;20.40;98.40;;;;;;4998756;28;20512;-57
2023/06/15 08:42:45;;;;;;;5.18;4.28;;;20.60;93.20;;;;;;4996380;28;20035;-58
2023/06/15 08:45:11;;;;;;;11.88;4.43;;;20.60;92.80;;;;;;4998987;28;20045;-58
2023/06/15 08:47:38;;;;;;;5.75;4.22;;;20.70;93.90;;;;;;4997439;28;20033;-58
2023/06/15 08:50:05;;;;;;;4.70;3.70;;;20.90;93.20;;;;;;4996740;28;20034;-56
2023/06/15 08:52:33;;;;;;;7.18;4.15;;;21.20;90.90;;;;;;4999142;28;20038;-60
2023/06/15 08:55:01;;;;;;;4.80;3.95;;;21.50;88.70;;;;;;4991514;28;20108;-57
2023/06/15 08:57:27;;;;;;;3.70;3.40;;;21.70;86.30;;;;;;4995040;28;20049;-57
2023/06/15 08:59:53;;;;;;;4.05;3.65;;;21.90;91.10;;;;;;4995730;28;20034;-57
2023/06/15 09:02:24;;;;;;;5.13;3.90;;;22.10;84.40;;;;;;4995998;28;20026;-57
2023/06/15 09:04:51;;;;;;;;;;;22.30;80.40;;;;;;4997424;28;20034;-57
2023/06/15 09:07:18;;;;;;;8.15;3.95;;;22.40;81.80;;;;;;4995151;28;19905;-57
2023/06/15 09:10:13;;;;;;;3.50;3.22;;;22.50;84.10;;;;;;4995873;28;20057;-57
2023/06/15 09:12:43;;;;;;;4.10;3.70;;;22.50;78.80;;;;;;4993521;28;20462;-58
2023/06/15 09:15:12;;;;;;;3.20;3.00;;;22.60;76.90;;;;;;4994333;28;20053;-56
2023/06/15 09:17:38;;;;;;;4.13;3.72;;;22.60;79.40;;;;;;4992936;28;20282;-57
2023/06/15 09:20:05;;;;;;;4.60;4.20;;;22.60;83.20;;;;;;4992173;28;20098;-57
2023/06/15 09:22:31;;;;;;;4.32;3.05;;;22.60;79.70;;;;;;4994892;28;20478;-58
2023/06/15 09:24:57;;;;;;;5.18;3.30;;;22.60;78.20;;;;;;4995264;28;20125;-57
2023/06/15 09:27:22;;;;;;;4.00;3.30;;;22.60;78.80;;;;;;4998014;28;20105;-58
2023/06/15 09:30:03;;;;;;;3.20;3.00;;;22.40;77.10;;;;;;4997744;28;20061;-57
2023/06/15 09:32:29;;;;;;;6.78;3.60;;;22.20;76.30;;;;;;4993843;28;20077;-57
2023/06/15 09:35:00;;;;;;;4.28;3.83;;;21.90;76.70;;;;;;4996985;28;20030;-58
2023/06/15 09:37:27;;;;;;;6.25;3.40;;;21.70;76.90;;;;;;4990797;28;20040;-57
2023/06/15 09:39:53;;;;;;;4.90;3.42;;;21.60;77.90;;;;;;4993053;28;20042;-57
2023/06/15 09:42:28;;;;;;;7.93;3.03;;;21.60;81.70;;;;;;4996350;28;20038;-58
2023/06/15 09:44:56;;;;;;;4.25;3.47;;;21.80;79.50;;;;;;4995718;28;20040;-59
2023/06/15 09:47:31;;;;;;;3.35;3.05;;;22.10;77.80;;;;;;4991180;28;20607;-59
2023/06/15 09:49:58;;;;;;;3.58;3.10;;;22.40;76.90;;;;;;4994685;28;20048;-58
2023/06/15 09:52:24;;;;;;;4.05;3.25;;;22.60;74.00;;;;;;4997666;28;20022;-58
2023/06/15 09:54:54;;;;;;;4.63;3.20;;;22.90;76.70;;;;;;4997949;28;20049;-59
2023/06/15 09:57:20;;;;;;;5.38;3.88;;;23.40;70.80;;;;;;4994523;28;20027;-58
2023/06/15 09:59:46;;;;;;;3.67;3.35;;;24.00;72.90;;;;;;4999776;28;20076;-57
2023/06/15 10:02:14;;;;;;;4.18;3.60;;;24.50;66.00;;;;;;4996203;28;20124;-58
2023/06/15 10:04:45;;;;;;;4.30;3.20;;;24.70;65.40;;;;;;4990693;28;20034;-58
2023/06/15 10:07:12;;;;;;;3.30;3.00;;;24.80;68.80;;;;;;4995656;28;20043;-58
2023/06/15 10:09:44;;;;;;;3.90;2.65;;;24.90;63.60;;;;;;4997399;28;20030;-58
2023/06/15 10:12:16;;;;;;;4.60;3.20;;;24.90;60.10;;;;;;4998053;28;20057;-58
2023/06/15 10:14:58;;;;;;;4.10;2.78;;;24.80;59.70;;;;;;4998645;28;20501;-59
2023/06/15 10:17:33;;;;;;;4.03;2.72;;;24.70;62.80;;;;;;4997762;28;20065;-59
2023/06/15 10:20:10;;;;;;;6.65;3.00;;;24.10;62.40;;;;;;4996361;28;20498;-58
2023/06/15 10:22:45;;;;;;;4.82;2.60;;;23.60;62.50;;;;;;4997793;28;20028;-58
2023/06/15 10:25:12;;;;;;;5.90;4.38;;;23.20;61.50;;;;;;5000819;28;20466;-57
2023/06/15 10:27:38;;;;;;;3.42;3.13;;;22.90;64.70;;;;;;5000793;28;20487;-58
2023/06/15 10:30:15;;;;;;;3.78;2.85;;;22.70;66.60;;;;;;5000556;28;20521;-58
2023/06/15 10:32:49;;;;;;;4.45;2.75;;;22.60;66.60;;;;;;5002138;28;20034;-59
2023/06/15 10:35:27;;;;;;;3.28;2.80;;;22.50;68.30;;;;;;5000896;28;20029;-58
2023/06/15 10:38:01;;;;;;;3.30;3.00;;;22.50;68.40;;;;;;4998476;28;20038;-58
2023/06/15 10:40:38;;;;;;;3.83;3.42;;;22.50;66.20;;;;;;5000150;28;20120;-59
2023/06/15 10:43:03;;;;;;;6.03;2.35;;;22.50;68.30;;;;;;4999769;28;20058;-58
2023/06/15 10:45:33;;;;;;;3.22;2.28;;;22.70;63.20;;;;;;5000357;28;20055;-59
2023/06/15 10:48:01;;;;;;;7.00;3.20;;;22.80;65.20;;;;;;5004329;28;20447;-60
2023/06/15 10:50:36;;;;;;;3.60;2.72;;;22.90;66.10;;;;;;5000154;28;20042;-58
2023/06/15 10:53:02;;;;;;;5.45;2.83;;;23.00;63.60;;;;;;5000665;28;20022;-58
2023/06/15 10:55:28;;;;;;;3.00;2.70;;;23.10;64.40;;;;;;5000018;28;20018;-58
2023/06/15 10:58:16;;;;;;;3.00;2.80;;;23.30;66.50;;;;;;4999248;28;20088;-60
2023/06/15 11:01:03;;;;;;;4.05;2.38;;;23.50;64.40;;;;;;5002750;28;20034;-59
2023/06/15 11:03:31;;;;;;;3.17;2.92;;;23.80;64.10;;;;;;5001176;28;20513;-59
2023/06/15 11:06:09;;;;;;;2.67;2.45;;;24.00;59.50;;;;;;4978746;28;20049;-58
2023/06/15 11:09:07;;;;;;;3.30;2.72;;;24.30;58.10;;;;;;5003153;28;20582;-58
2023/06/15 11:11:36;;;;;;;2.70;2.50;;;24.70;59.60;;;;;;4988914;28;20491;-58
2023/06/15 11:14:06;;;;;;;2.65;2.45;;;25.00;62.60;;;;;;5003468;28;20037;-58
2023/06/15 11:16:33;;;;;;;2.83;2.28;;;25.40;58.70;;;;;;5001956;28;20545;-59
2023/06/15 11:19:19;;;;;;;2.60;2.28;;;25.50;57.40;;;;;;5000709;28;20065;-59
2023/06/15 11:21:59;;;;;;;2.78;2.45;;;25.80;58.20;;;;;;5001275;28;20034;-59
2023/06/15 11:24:29;;;;;;;2.60;2.33;;;25.80;57.80;;;;;;4998397;28;20041;-59
2023/06/15 11:26:55;;;;;;;2.95;2.40;;;25.60;54.40;;;;;;4998274;28;20397;-59
2023/06/15 11:29:22;;;;;;;4.50;2.78;;;25.40;59.90;;;;;;4999718;28;20117;-59
2023/06/15 11:31:52;;;;;;;3.22;2.40;;;25.30;59.30;;;;;;4999118;28;20076;-58
2023/06/15 11:34:18;;;;;;;3.72;2.20;;;25.30;57.10;;;;;;4995447;28;20064;-59
2023/06/15 11:36:44;;;;;;;5.22;2.85;;;25.10;56.60;;;;;;4996022;28;20026;-59
2023/06/15 11:39:29;;;;;;;5.75;3.20;;;25.10;58.70;;;;;;5001507;28;20097;-60
2023/06/15 11:41:57;;;;;;;2.35;2.15;;;25.10;60.00;;;;;;4996805;28;20030;-59
2023/06/15 11:44:23;;;;;;;5.90;2.78;;;25.30;56.90;;;;;;4997333;28;20419;-58
2023/06/15 11:46:56;;;;;;;3.10;2.80;;;25.70;57.10;;;;;;4996909;28;20160;-60
2023/06/15 11:49:22;;;;;;;2.63;2.33;;;25.80;57.00;;;;;;5000274;28;20025;-59
2023/06/15 11:51:51;;;;;;;3.35;2.42;;;25.80;56.60;;;;;;4999852;28;20038;-57
2023/06/15 11:54:17;;;;;;;3.72;2.40;;;25.80;58.00;;;;;;4998273;28;20030;-58
2023/06/15 11:56:49;;;;;;;3.25;2.95;;;25.80;55.80;;;;;;4997653;28;20585;-59
2023/06/15 11:59:17;;;;;;;4.95;2.38;;;25.80;57.50;;;;;;4997214;28;20041;-57
2023/06/15 12:01:43;;;;;;;3.42;2.72;;;25.80;56.70;;;;;;5000421;28;20026;-59
2023/06/15 12:04:13;;;;;;;3.03;2.53;;;25.70;55.20;;;;;;4994862;28;20518;-56
2023/06/15 12:06:47;;;;;;;3.17;2.65;;;25.80;56.20;;;;;;4994763;28;20041;-59
2023/06/15 12:09:16;;;;;;;3.10;2.15;;;25.80;56.20;;;;;;4995360;28;20113;-57
2023/06/15 12:11:43;;;;;;;4.72;2.47;;;26.00;55.70;;;;;;4999035;28;20041;-59
2023/06/15 12:14:11;;;;;;;4.47;2.65;;;26.10;53.60;;;;;;4999822;28;20041;-59
2023/06/15 12:16:38;;;;;;;6.25;2.50;;;26.20;54.70;;;;;;4992246;28;20025;-60
2023/06/15 12:19:08;;;;;;;3.95;2.53;;;26.10;52.00;;;;;;5001392;28;20507;-56
2023/06/15 12:21:37;;;;;;;2.92;2.50;;;25.80;55.40;;;;;;4998971;28;20064;-56
2023/06/15 12:24:12;;;;;;;3.28;2.10;;;25.80;55.40;;;;;;4997809;28;20215;-58
2023/06/15 12:26:38;;;;;;;3.15;2.33;;;26.00;53.80;;;;;;4998324;28;20654;-60
2023/06/15 12:29:14;;;;;;;2.67;2.10;;;26.10;53.40;;;;;;4995335;28;20025;-58
2023/06/15 12:31:41;;;;;;;3.42;2.25;;;25.90;55.40;;;;;;4998676;28;20132;-60
2023/06/15 12:34:08;;;;;;;2.63;2.42;;;26.10;54.80;;;;;;4997434;28;20045;-60
2023/06/15 12:36:36;;;;;;;3.13;2.17;;;26.00;54.80;;;;;;4997098;28;20029;-58
2023/06/15 12:39:07;;;;;;;2.78;2.50;;;25.90;55.00;;;;;;4999767;28;20052;-56
2023/06/15 12:41:36;;;;;;;5.85;2.33;;;25.70;54.90;;;;;;5000594;28;20029;-58
2023/06/15 12:44:02;;;;;;;3.03;2.63;;;25.50;53.20;;;;;;5001720;28;20018;-60
2023/06/15 12:46:28;;;;;;;3.30;3.00;;;25.20;53.60;;;;;;5002964;28;20049;-58
2023/06/15 12:48:54;;;;;;;4.18;2.55;;;25.00;54.50;;;;;;5000700;28;20032;-56
2023/06/15 12:51:19;;;;;;;3.25;2.42;;;24.80;55.80;;;;;;4997785;28;20532;-59